»·PEaware :: AAL554 KJAC-KSEA

AAL554 :: KJAC-KSEA

FLIGHT INFORMATION

Flight Status: Arrived
Operator:
American Airlines
More flights by this operator :: More flights under this callsign
Pilot: Shawn Goldsworthy (7208)
Aircraft: BOEING 757-200
(B752)
More flights by this aircraft type
Origin: KJAC Jackson Hole
United States
Destination: KSEA Seattle-Tacoma Intl
United States
More flights between these airports :: More routes between these airports
Route: +IDA DBS J82 DNJ J20 PDT CHINS2
File this flight plan on PilotEdge
Remarks:
Altitude:
(Current/Filed)
38,000ft
Speed:
(Current/Filed)
444kts
Departed: 16-Jun-17 10:23 PM
Arrived: 17-Jun-17 12:16 AM
Distance/Time
Traveled:
537nm/1:53
Distance/Time
To Go:
Arrived

Flight Plot

Page will automatically refresh every two minutes.

Flight plan parsing failed; only flown route is shown


Map Options




Map Legend


Flown Route
Filed Route
Departure Airport
Arrival Airport
Navaid (VOR, NDB)
Fix

Horizontal Profiles

Position Reports

Time Latitude Longitude Heading Altitude Ground
Speed
16-Jun-17 21:58 43.603513 -110.737182 109 6463ft 0kts
16-Jun-17 21:59 43.603513 -110.737182 109 6463ft 0kts
16-Jun-17 22:00 43.603513 -110.737182 109 6463ft 0kts
16-Jun-17 22:01 43.603513 -110.737182 109 6463ft 0kts
16-Jun-17 22:02 43.603513 -110.737182 109 6463ft 0kts
16-Jun-17 22:03 43.603513 -110.737182 109 6463ft 0kts
16-Jun-17 22:04 43.603513 -110.737182 109 6463ft 0kts
16-Jun-17 22:05 43.603513 -110.737182 109 6463ft 0kts
16-Jun-17 22:06 43.603513 -110.737182 109 6463ft 0kts
16-Jun-17 22:07 43.603513 -110.737182 109 6463ft 0kts
16-Jun-17 22:08 43.603513 -110.737182 109 6463ft 0kts
16-Jun-17 22:09 43.603513 -110.737181 109 6463ft 0kts
16-Jun-17 22:10 43.603534 -110.737522 80 6462ft 2kts
16-Jun-17 22:11 43.603275 -110.738140 44 6462ft 0kts
16-Jun-17 22:12 43.603276 -110.738139 44 6462ft 0kts
16-Jun-17 22:13 43.603276 -110.738139 44 6462ft 0kts
16-Jun-17 22:14 43.603276 -110.738139 44 6462ft 0kts
16-Jun-17 22:15 43.603276 -110.738139 44 6462ft 0kts
16-Jun-17 22:16 43.603276 -110.738139 44 6462ft 0kts
16-Jun-17 22:17 43.603276 -110.738139 44 6462ft 0kts
16-Jun-17 22:18 43.603276 -110.738139 44 6462ft 0kts
16-Jun-17 22:19 43.603276 -110.738139 44 6462ft 0kts
16-Jun-17 22:20 43.609261 -110.735260 19 6462ft 34kts
16-Jun-17 22:21 43.614860 -110.732493 307 6463ft 2kts
16-Jun-17 22:22 43.614916 -110.732578 314 6463ft 0kts
16-Jun-17 22:23 43.614916 -110.732578 314 6463ft 0kts
16-Jun-17 22:24 43.615239 -110.733670 255 6462ft 13kts
16-Jun-17 22:25 43.594315 -110.743824 202 6964ft 166kts
16-Jun-17 22:27 43.562666 -110.780391 216 9360ft 176kts
16-Jun-17 22:28 43.507840 -110.819697 207 11192ft 273kts
16-Jun-17 22:29 43.428554 -110.868005 207 13230ft 361kts
16-Jun-17 22:30 43.334681 -110.924578 209 16899ft 383kts
16-Jun-17 22:31 43.265905 -111.025592 253 20099ft 376kts
16-Jun-17 22:32 43.271753 -111.164346 286 22828ft 386kts
16-Jun-17 22:33 43.307466 -111.301575 288 25121ft 394kts
16-Jun-17 22:34 43.346103 -111.441122 288 27013ft 402kts
16-Jun-17 22:35 43.386008 -111.585307 288 28621ft 408kts
16-Jun-17 22:36 43.425704 -111.729284 287 30150ft 410kts
16-Jun-17 22:37 43.465710 -111.872315 287 32074ft 398kts
16-Jun-17 22:38 43.509421 -112.009860 301 33611ft 398kts
16-Jun-17 22:39 43.606113 -112.089934 338 34721ft 441kts
16-Jun-17 22:40 43.725737 -112.120879 338 35628ft 441kts
16-Jun-17 22:41 43.844566 -112.151341 338 36421ft 439kts
16-Jun-17 22:42 43.963920 -112.181954 338 37087ft 439kts
16-Jun-17 22:43 44.066157 -112.249842 306 37557ft 397kts
16-Jun-17 22:44 44.114488 -112.377033 286 38037ft 380kts
16-Jun-17 22:45 44.145219 -112.517730 283 38054ft 388kts
16-Jun-17 22:46 44.172717 -112.661586 282 38061ft 393kts
16-Jun-17 22:47 44.198810 -112.803042 282 38059ft 377kts
16-Jun-17 22:48 44.224493 -112.943710 282 38064ft 375kts
16-Jun-17 22:49 44.249804 -113.083305 282 38070ft 373kts
16-Jun-17 22:50 44.274833 -113.222280 282 38097ft 373kts
16-Jun-17 22:51 44.299674 -113.361411 282 38113ft 373kts
16-Jun-17 22:52 44.323957 -113.498369 283 38109ft 373kts
16-Jun-17 22:53 44.348482 -113.637837 282 38108ft 373kts
16-Jun-17 22:54 44.372223 -113.773840 282 38122ft 373kts
16-Jun-17 22:55 44.396364 -113.913219 282 38122ft 373kts
16-Jun-17 22:56 44.420240 -114.052193 282 38118ft 373kts
16-Jun-17 22:57 44.444034 -114.191737 282 38115ft 373kts
16-Jun-17 22:58 44.467395 -114.330361 282 38113ft 373kts
16-Jun-17 22:59 44.490615 -114.470338 282 38110ft 373kts
16-Jun-17 23:00 44.514265 -114.610993 282 38106ft 372kts
16-Jun-17 23:01 44.536810 -114.747049 282 38121ft 373kts
16-Jun-17 23:02 44.559799 -114.887299 281 38121ft 373kts
16-Jun-17 23:03 44.582508 -115.027161 282 38121ft 371kts
16-Jun-17 23:04 44.604658 -115.166139 282 38134ft 369kts
16-Jun-17 23:05 44.626631 -115.304522 283 38149ft 368kts
16-Jun-17 23:06 44.648564 -115.443113 283 38146ft 367kts
16-Jun-17 23:07 44.670146 -115.580441 283 38122ft 360kts
16-Jun-17 23:08 44.689970 -115.707721 282 36050ft 351kts
16-Jun-17 23:09 44.711273 -115.845125 282 34178ft 373kts
16-Jun-17 23:10 44.732887 -115.985975 282 34155ft 373kts
16-Jun-17 23:11 44.754223 -116.126440 282 34152ft 374kts
16-Jun-17 23:12 44.785336 -116.262215 294 32126ft 379kts
16-Jun-17 23:13 44.830895 -116.390075 296 31098ft 376kts
16-Jun-17 23:14 44.878476 -116.523759 296 30148ft 389kts
16-Jun-17 23:15 44.925956 -116.657974 295 30145ft 390kts
16-Jun-17 23:16 44.972727 -116.790913 295 30153ft 389kts
16-Jun-17 23:17 45.019859 -116.925528 295 30154ft 385kts
16-Jun-17 23:18 45.066569 -117.059634 295 30160ft 381kts
16-Jun-17 23:19 45.112174 -117.189611 295 30174ft 374kts
16-Jun-17 23:20 45.156117 -117.316591 296 30172ft 374kts
16-Jun-17 23:21 45.201209 -117.447747 295 30168ft 374kts
16-Jun-17 23:22 45.246559 -117.578845 295 30165ft 374kts
16-Jun-17 23:23 45.289891 -117.705982 294 30180ft 374kts
16-Jun-17 23:24 45.334145 -117.836690 295 30178ft 374kts
16-Jun-17 23:25 45.378651 -117.968942 295 30173ft 373kts
16-Jun-17 23:26 45.422681 -118.100437 295 30173ft 374kts
16-Jun-17 23:26 45.459564 -118.211093 295 30167ft 374kts
16-Jun-17 23:28 45.510380 -118.364288 295 30162ft 374kts
16-Jun-17 23:28 45.547006 -118.475323 295 30148ft 374kts
16-Jun-17 23:29 45.590862 -118.608826 295 30133ft 374kts
16-Jun-17 23:30 45.632601 -118.736667 294 30159ft 373kts
16-Jun-17 23:32 45.682591 -118.892047 294 30154ft 372kts
16-Jun-17 23:33 45.741491 -119.012959 307 30144ft 375kts
16-Jun-17 23:34 45.808477 -119.126887 307 30127ft 375kts
16-Jun-17 23:35 45.873980 -119.238165 307 30111ft 375kts
16-Jun-17 23:35 45.930384 -119.332903 307 30106ft 375kts
16-Jun-17 23:36 45.997417 -119.447143 307 30099ft 374kts
16-Jun-17 23:37 46.064050 -119.561950 306 30093ft 374kts
16-Jun-17 23:38 46.128377 -119.673818 306 30110ft 363kts
16-Jun-17 23:39 46.190759 -119.781982 306 30117ft 362kts
16-Jun-17 23:40 46.254617 -119.894379 306 30115ft 362kts
16-Jun-17 23:41 46.318718 -120.006559 306 30112ft 362kts
16-Jun-17 23:42 46.382651 -120.118591 306 30109ft 363kts
16-Jun-17 23:43 46.447032 -120.230375 306 30106ft 363kts
16-Jun-17 23:44 46.511234 -120.342868 307 30103ft 363kts
16-Jun-17 23:45 46.575483 -120.455945 304 30097ft 362kts
16-Jun-17 23:46 46.632654 -120.575761 303 30097ft 361kts
16-Jun-17 23:47 46.681007 -120.677308 302 30113ft 361kts
16-Jun-17 23:48 46.737190 -120.795666 302 29137ft 368kts
16-Jun-17 23:49 46.795882 -120.920970 302 27136ft 379kts
16-Jun-17 23:50 46.852145 -121.040068 302 25759ft 351kts
16-Jun-17 23:51 46.906797 -121.156415 303 23969ft 347kts
16-Jun-17 23:52 46.960261 -121.270983 303 22300ft 341kts
16-Jun-17 23:53 47.012278 -121.384290 303 20759ft 338kts
16-Jun-17 23:54 47.063895 -121.496614 303 19470ft 335kts
16-Jun-17 23:55 47.113797 -121.606544 304 17991ft 336kts
16-Jun-17 23:56 47.159430 -121.706221 303 16328ft 337kts
16-Jun-17 23:57 47.210974 -121.818980 303 15204ft 336kts
16-Jun-17 23:58 47.263142 -121.933029 305 13817ft 336kts
16-Jun-17 23:59 47.316122 -122.046563 304 12427ft 337kts
17-Jun-17 00:00 47.368682 -122.160933 309 11973ft 337kts
17-Jun-17 00:01 47.439836 -122.197977 358 11858ft 287kts
17-Jun-17 00:02 47.517317 -122.195836 358 10092ft 277kts
17-Jun-17 00:03 47.593183 -122.195256 358 7778ft 270kts
17-Jun-17 00:04 47.667277 -122.196089 358 5550ft 264kts
17-Jun-17 00:05 47.735995 -122.197488 358 4936ft 216kts
17-Jun-17 00:06 47.793624 -122.197921 358 4330ft 205kts
17-Jun-17 00:07 47.844937 -122.216939 295 3435ft 200kts
17-Jun-17 00:08 47.834837 -122.290412 204 3167ft 192kts
17-Jun-17 00:09 47.779326 -122.313715 190 3191ft 212kts
17-Jun-17 00:10 47.717753 -122.315897 182 3245ft 257kts
17-Jun-17 00:11 47.648484 -122.316598 181 3143ft 220kts
17-Jun-17 00:12 47.619067 -122.316772 181 3209ft 192kts
17-Jun-17 00:13 47.612843 -122.316824 180 3212ft 186kts
17-Jun-17 00:14 47.565423 -122.317153 180 2482ft 165kts
17-Jun-17 00:15 47.521711 -122.317448 180 1598ft 142kts
17-Jun-17 00:16 47.485737 -122.317645 179 905ft 127kts
17-Jun-17 00:17 47.452384 -122.317926 181 445ft 82kts
17-Jun-17 00:18 47.446351 -122.311788 104 444ft 12kts
17-Jun-17 00:19 47.444407 -122.306337 1 445ft 14kts
17-Jun-17 00:20 47.447865 -122.305514 177 444ft 2kts
17-Jun-17 00:21 47.446424 -122.304600 128 444ft 0kts
17-Jun-17 00:22 47.446424 -122.304600 128 444ft 0kts
17-Jun-17 00:23 47.510503 -122.317524 180 1395ft 130kts
17-Jun-17 00:24 47.458190 -122.317893 179 445ft 114kts
17-Jun-17 00:25 47.496496 -122.317619 180 1116ft 127kts
17-Jun-17 00:26 47.461278 -122.317884 180 456ft 127kts
17-Jun-17 00:27 47.456388 -122.317893 181 445ft 103kts
17-Jun-17 00:28 47.446418 -122.312636 93 444ft 15kts
17-Jun-17 00:29 47.443743 -122.306435 26 444ft 16kts
17-Jun-17 00:30 47.448018 -122.305622 96 444ft 5kts
17-Jun-17 00:31 47.446462 -122.304671 127 444ft 3kts
17-Jun-17 00:32 47.446424 -122.304600 128 444ft 0kts
17-Jun-17 00:33 47.446424 -122.304600 128 444ft 0kts

Navigation Log

Ident Type
Flight plan parsing failed, navigation log unavailable